Time;durP1;ratioP1;P1;durP2;ratioP2;P2;SDS_P1;SDS_P2;PMS_P1;PMS_P2;Temp;Humidity;BMP_temperature;BMP_pressure;BME280_temperature;BME280_humidity;BME280_pressure;Samples;Min_cycle;Max_cycle;Signal;HPM_P1;HPM_P2
2023/12/11 00:00:07;;;;;;;39.38;5.68;;;;;;;7.90;100.00;99492.13;4933020;29;20410;-77
2023/12/11 00:02:34;;;;;;;30.30;5.72;;;;;;;7.90;100.00;99505.22;4897040;29;20067;-78
2023/12/11 00:05:02;;;;;;;30.52;4.43;;;;;;;7.90;100.00;99508.75;4929147;29;20051;-78
2023/12/11 00:07:30;;;;;;;32.83;5.28;;;;;;;7.90;100.00;99507.84;4950758;29;20055;-79
2023/12/11 00:09:58;;;;;;;31.27;5.13;;;;;;;7.90;100.00;99508.75;4894364;29;20055;-77
2023/12/11 00:12:25;;;;;;;28.25;5.10;;;;;;;7.90;100.00;99503.50;4948692;29;20039;-78
2023/12/11 00:14:52;;;;;;;34.33;4.93;;;;;;;7.88;100.00;99507.00;4922990;29;20071;-77
2023/12/11 00:17:22;;;;;;;31.92;4.63;;;;;;;7.86;100.00;99498.28;4922345;29;20048;-77
2023/12/11 00:19:50;;;;;;;30.13;5.45;;;;;;;7.83;100.00;99506.19;4915745;29;20081;-77
2023/12/11 00:22:17;;;;;;;33.35;5.53;;;;;;;7.80;100.00;99505.28;4930519;29;20480;-78
2023/12/11 00:24:45;;;;;;;29.25;5.65;;;;;;;7.77;100.00;99501.84;4907445;29;20043;-77
2023/12/11 00:27:12;;;;;;;32.70;5.80;;;;;;;7.72;100.00;99504.50;4912597;29;20047;-78
2023/12/11 00:29:39;;;;;;;40.90;6.53;;;;;;;7.69;100.00;99494.00;4929192;29;20055;-78
2023/12/11 00:32:07;;;;;;;39.63;6.10;;;;;;;7.66;100.00;99495.81;4916546;29;20047;-78
2023/12/11 00:34:34;;;;;;;37.85;5.63;;;;;;;7.63;100.00;99495.81;4910821;29;20054;-78
2023/12/11 00:37:02;;;;;;;39.08;6.22;;;;;;;7.58;100.00;99498.44;4938834;29;20062;-77
2023/12/11 00:39:30;;;;;;;34.08;6.63;;;;;;;7.54;100.00;99495.00;4915914;29;20069;-78
2023/12/11 00:41:58;;;;;;;37.00;6.47;;;;;;;7.49;100.00;99499.41;4906148;29;20043;-78
2023/12/11 00:44:25;;;;;;;39.22;6.03;;;;;;;7.46;100.00;99498.53;4917700;29;20050;-78
2023/12/11 00:46:53;;;;;;;33.90;6.40;;;;;;;7.42;100.00;99498.53;4912069;29;20055;-78
2023/12/11 00:49:20;;;;;;;41.80;5.40;;;;;;;7.38;100.00;99496.81;4918792;28;20043;-78
2023/12/11 00:51:52;;;;;;;29.83;5.28;;;;;;;7.38;100.00;99499.44;4930794;29;20052;-78
2023/12/11 00:54:20;;;;;;;38.83;6.20;;;;;;;7.36;100.00;99510.81;4934678;28;20055;-78
2023/12/11 00:56:47;;;;;;;44.90;7.00;;;;;;;7.34;100.00;99513.44;4908538;28;20039;-78
2023/12/11 00:59:14;;;;;;;34.05;5.80;;;;;;;7.33;100.00;99516.06;4905362;29;20043;-77
2023/12/11 01:01:42;;;;;;;36.53;5.45;;;;;;;7.31;100.00;99513.44;4931990;29;20051;-77
2023/12/11 01:04:12;;;;;;;36.13;6.25;;;;;;;7.29;100.00;99515.22;4901010;29;20054;-77
2023/12/11 01:06:39;;;;;;;28.87;5.90;;;;;;;7.27;100.00;99508.25;4931716;29;20055;-77
2023/12/11 01:09:07;;;;;;;43.58;6.53;;;;;;;7.26;100.00;99517.88;4898062;29;20595;-77
2023/12/11 01:11:34;;;;;;;35.38;5.95;;;;;;;7.25;100.00;99526.59;4874380;29;20047;-78
2023/12/11 01:14:02;;;;;;;45.28;7.65;;;;;;;7.25;100.00;99518.72;4929476;29;20698;-77
2023/12/11 01:16:29;;;;;;;34.70;6.95;;;;;;;7.26;100.00;99528.34;4931853;29;20047;-79
2023/12/11 01:18:57;;;;;;;36.33;6.75;;;;;;;7.26;100.00;99520.50;4900167;29;20058;-79
2023/12/11 01:21:25;;;;;;;40.03;7.20;;;;;;;7.29;100.00;99519.59;4913868;28;20047;-79
2023/12/11 01:23:52;;;;;;;54.25;7.88;;;;;;;7.29;100.00;99519.59;4946622;29;20035;-77
2023/12/11 01:26:24;;;;;;;48.67;7.40;;;;;;;7.30;100.00;99516.09;4948240;29;20050;-78
2023/12/11 01:28:51;;;;;;;65.15;8.18;;;;;;;7.30;100.00;99516.09;4869607;29;20047;-78
2023/12/11 01:31:18;;;;;;;47.40;6.35;;;;;;;7.31;100.00;99509.97;4929613;29;20047;-77
2023/12/11 01:33:46;;;;;;;43.40;7.40;;;;;;;7.32;100.00;99514.34;4914728;29;20055;-77
2023/12/11 01:36:13;;;;;;;55.55;7.43;;;;;;;7.32;100.00;99514.34;4887356;29;20298;-78
2023/12/11 01:38:41;;;;;;;44.08;7.65;;;;;;;7.33;100.00;99514.31;4931557;29;20058;-78
2023/12/11 01:41:08;;;;;;;52.75;7.15;;;;;;;7.31;100.00;99513.44;4898459;29;20043;-77
2023/12/11 01:43:35;;;;;;;47.50;7.85;;;;;;;7.32;100.00;99509.97;4911752;29;20420;-78
2023/12/11 01:46:13;;;;;;;45.22;7.38;;;;;;;7.33;100.00;99509.06;4930244;29;20124;-77
2023/12/11 01:48:41;;;;;;;46.92;7.50;;;;;;;7.35;100.00;99503.84;4932736;29;20047;-77
2023/12/11 01:51:09;;;;;;;50.80;8.60;;;;;;;7.38;100.00;99512.56;4914500;29;20075;-79
2023/12/11 01:53:38;;;;;;;43.75;6.85;;;;;;;7.38;100.00;99509.06;4947904;29;20058;-79
2023/12/11 01:56:08;;;;;;;61.05;10.15;;;;;;;7.39;100.00;99506.44;4925995;29;20062;-77
2023/12/11 01:58:35;;;;;;;50.05;7.00;;;;;;;7.42;100.00;99505.53;4905390;29;20404;-78
2023/12/11 02:01:04;;;;;;;44.42;7.68;;;;;;;7.45;100.00;99504.66;4928729;29;20409;-78
2023/12/11 02:03:31;;;;;;;47.88;7.18;;;;;;;7.44;100.00;99508.16;4933173;29;20047;-77
2023/12/11 02:05:59;;;;;;;40.58;6.45;;;;;;;7.42;100.00;99501.16;4888124;29;20553;-78
2023/12/11 02:08:28;;;;;;;40.97;7.18;;;;;;;7.39;100.00;99505.56;4914516;28;20050;-78
2023/12/11 02:10:56;;;;;;;45.53;7.22;;;;;;;7.35;100.00;99501.22;4925803;29;20409;-78
2023/12/11 02:13:23;;;;;;;43.95;6.75;;;;;;;7.32;100.00;99499.50;4897686;29;20050;-77
2023/12/11 02:15:51;;;;;;;53.70;7.80;;;;;;;7.33;100.00;99492.50;4892184;29;20058;-78
2023/12/11 02:18:19;;;;;;;40.95;6.95;;;;;;;7.35;100.00;99490.72;4912142;29;20058;-78
2023/12/11 02:20:47;;;;;;;47.85;6.72;;;;;;;7.36;100.00;99488.09;4948496;29;20043;-78
2023/12/11 02:23:20;;;;;;;53.42;7.47;;;;;;;7.38;100.00;99491.59;4912940;29;20047;-77
2023/12/11 02:25:59;;;;;;;34.30;6.18;;;;;;;7.40;100.00;99491.59;4929648;29;20059;-78
2023/12/11 02:28:26;;;;;;;50.83;8.50;;;;;;;7.41;100.00;99488.09;4927458;29;20047;-79
2023/12/11 02:30:54;;;;;;;42.55;7.03;;;;;;;7.44;100.00;99489.81;4898646;29;20493;-79
2023/12/11 02:33:21;;;;;;;45.10;6.47;;;;;;;7.45;100.00;99491.53;4929512;29;20047;-79
2023/12/11 02:35:48;;;;;;;47.10;6.10;;;;;;;7.47;100.00;99488.06;4926002;29;20069;-77
2023/12/11 02:38:16;;;;;;;50.90;7.75;;;;;;;7.51;100.00;99489.78;4867216;29;20043;-77
2023/12/11 02:40:43;;;;;;;38.15;5.68;;;;;;;7.52;100.00;99475.75;4931738;29;20051;-77
2023/12/11 02:43:11;;;;;;;43.22;6.95;;;;;;;7.53;100.00;99471.41;4926424;29;20039;-77
2023/12/11 02:45:38;;;;;;;38.92;6.85;;;;;;;7.55;100.00;99469.66;4932663;29;20047;-77
2023/12/11 02:48:06;;;;;;;35.65;6.07;;;;;;;7.55;100.00;99454.78;4903611;29;20051;-79
2023/12/11 02:50:33;;;;;;;36.88;6.13;;;;;;;7.55;100.00;99456.53;4931413;29;20055;-77
2023/12/11 02:53:03;;;;;;;47.72;6.25;;;;;;;7.55;100.00;99441.69;4887244;29;20505;-78
2023/12/11 02:55:31;;;;;;;39.90;8.07;;;;;;;7.55;100.00;99439.06;4927688;29;20066;-78
2023/12/11 02:58:00;;;;;;;32.72;6.22;;;;;;;7.55;100.00;99436.44;4947982;29;20039;-78
2023/12/11 03:00:29;;;;;;;47.33;8.20;;;;;;;7.55;100.00;99422.47;4914952;29;20055;-78
2023/12/11 03:02:57;;;;;;;48.13;7.22;;;;;;;7.55;100.00;99422.47;4889874;29;20042;-78
2023/12/11 03:05:24;;;;;;;44.90;7.30;;;;;;;7.56;100.00;99424.19;4946302;28;20046;-78
2023/12/11 03:07:51;;;;;;;50.22;8.15;;;;;;;7.57;100.00;99421.56;4917131;29;20054;-78
2023/12/11 03:10:20;;;;;;;39.70;6.50;;;;;;;7.58;100.00;99425.94;4895761;29;20568;-78
2023/12/11 03:12:48;;;;;;;57.50;8.43;;;;;;;7.58;100.00;99418.06;4910615;29;20062;-77
2023/12/11 03:15:15;;;;;;;47.60;7.35;;;;;;;7.59;100.00;99414.56;4926539;29;20051;-77
2023/12/11 03:17:43;;;;;;;57.38;7.47;;;;;;;7.60;100.00;99413.69;4904853;29;20051;-77
2023/12/11 03:20:11;;;;;;;49.03;8.43;;;;;;;7.61;100.00;99417.16;4927492;28;20492;-78
2023/12/11 03:22:39;;;;;;;48.47;7.82;;;;;;;7.61;100.00;99401.44;4931464;29;20048;-78
2023/12/11 03:25:07;;;;;;;53.53;7.88;;;;;;;7.61;100.00;99406.69;4902946;29;20059;-77
2023/12/11 03:27:35;;;;;;;55.08;8.93;;;;;;;7.62;100.00;99408.44;4909639;29;20052;-77
2023/12/11 03:30:02;;;;;;;52.38;8.43;;;;;;;7.62;100.00;99395.31;4915004;29;20432;-77
2023/12/11 03:32:30;;;;;;;59.50;8.32;;;;;;;7.59;100.00;99398.81;4923196;29;20054;-77
2023/12/11 03:34:57;;;;;;;47.10;7.50;;;;;;;7.60;100.00;99400.56;4875439;29;20496;-77
2023/12/11 03:37:25;;;;;;;58.65;7.75;;;;;;;7.61;100.00;99399.69;4917523;29;20074;-77
2023/12/11 03:39:53;;;;;;;59.63;8.93;;;;;;;7.61;100.00;99397.06;4905516;29;20047;-78
2023/12/11 03:42:21;;;;;;;59.50;9.15;;;;;;;7.61;100.00;99390.97;4900365;29;20051;-77
2023/12/11 03:44:49;;;;;;;57.78;8.23;;;;;;;7.63;100.00;99385.72;4949510;29;20386;-77
2023/12/11 03:47:17;;;;;;;58.30;9.18;;;;;;;7.63;100.00;99383.09;4927528;29;20858;-77
2023/12/11 03:49:44;;;;;;;57.70;8.68;;;;;;;7.64;100.00;99384.81;4890422;29;20058;-77
2023/12/11 03:52:12;;;;;;;51.38;7.28;;;;;;;7.64;100.00;99380.44;4909144;29;20043;-77
2023/12/11 03:54:39;;;;;;;55.88;8.68;;;;;;;7.66;100.00;99377.81;4904075;29;20045;-77
2023/12/11 03:57:07;;;;;;;60.13;10.35;;;;;;;7.65;100.00;99376.94;4915280;29;20054;-78
2023/12/11 03:59:34;;;;;;;58.42;11.25;;;;;;;7.64;100.00;99369.97;4935968;29;20051;-77
2023/12/11 04:02:01;;;;;;;56.53;7.70;;;;;;;7.66;100.00;99376.06;4915530;29;20051;-78
2023/12/11 04:04:30;;;;;;;65.57;9.05;;;;;;;7.66;100.00;99367.34;4908138;29;20497;-78
2023/12/11 04:06:57;;;;;;;57.58;8.43;;;;;;;7.66;100.00;99367.34;4916797;29;20059;-78
2023/12/11 04:09:27;;;;;;;49.53;8.90;;;;;;;7.67;100.00;99366.44;4888563;29;20066;-78
2023/12/11 04:11:54;;;;;;;52.28;9.07;;;;;;;7.67;100.00;99359.44;4949706;29;20058;-77
2023/12/11 04:14:22;;;;;;;54.80;8.13;;;;;;;7.66;100.00;99368.19;4914683;29;20051;-77
2023/12/11 04:16:49;;;;;;;61.92;8.85;;;;;;;7.67;100.00;99362.06;4933095;29;20043;-77
2023/12/11 04:19:16;;;;;;;44.13;8.70;;;;;;;7.67;100.00;99364.69;4929581;29;20059;-78
2023/12/11 04:21:45;;;;;;;60.13;8.60;;;;;;;7.67;100.00;99348.94;4891238;28;20505;-79
2023/12/11 04:24:12;;;;;;;53.97;7.97;;;;;;;7.67;100.00;99354.19;4921237;29;20062;-78
2023/12/11 04:26:41;;;;;;;54.50;9.40;;;;;;;7.68;100.00;99345.44;4886345;29;20050;-78
2023/12/11 04:29:09;;;;;;;67.68;8.90;;;;;;;7.70;100.00;99345.44;4927678;29;20051;-79
2023/12/11 04:31:36;;;;;;;63.50;8.88;;;;;;;7.68;100.00;99348.06;4913536;29;20057;-78
2023/12/11 04:34:06;;;;;;;55.38;8.13;;;;;;;7.69;100.00;99341.06;4910542;29;20051;-78
2023/12/11 04:36:33;;;;;;;54.08;9.05;;;;;;;7.69;100.00;99341.94;4873074;29;21436;-78
2023/12/11 04:39:02;;;;;;;49.25;9.27;;;;;;;7.70;100.00;99348.06;4926851;29;20067;-77
2023/12/11 04:41:29;;;;;;;62.85;9.68;;;;;;;7.70;100.00;99351.56;4919373;29;20063;-77
2023/12/11 04:43:57;;;;;;;48.13;7.72;;;;;;;7.71;100.00;99339.31;4884928;29;20520;-78
2023/12/11 04:46:24;;;;;;;57.63;8.43;;;;;;;7.73;100.00;99341.03;4930958;29;20047;-78
2023/12/11 04:48:51;;;;;;;55.00;8.50;;;;;;;7.74;100.00;99329.66;4904241;29;20046;-77
2023/12/11 04:51:19;;;;;;;51.33;7.60;;;;;;;7.75;100.00;99331.41;4929472;29;20047;-79
2023/12/11 04:53:46;;;;;;;58.03;8.00;;;;;;;7.79;100.00;99332.25;4908696;29;20060;-79
2023/12/11 04:56:13;;;;;;;55.38;7.88;;;;;;;7.78;100.00;99328.72;4929124;29;20039;-79
2023/12/11 04:58:41;;;;;;;47.88;8.52;;;;;;;7.79;100.00;99340.13;4894912;29;20390;-78
2023/12/11 05:01:08;;;;;;;63.35;8.93;;;;;;;7.78;100.00;99330.50;4941979;28;20066;-77
2023/12/11 05:03:36;;;;;;;57.78;9.02;;;;;;;7.77;100.00;99334.88;4917868;28;20062;-79
2023/12/11 05:06:03;;;;;;;63.60;8.10;;;;;;;7.74;100.00;99337.53;4930338;29;20055;-79
2023/12/11 05:08:31;;;;;;;58.00;8.75;;;;;;;7.73;100.00;99343.66;4881359;29;20134;-78
2023/12/11 05:10:58;;;;;;;58.45;9.18;;;;;;;7.72;100.00;99334.06;4930592;29;20051;-79
2023/12/11 05:13:25;;;;;;;53.45;8.68;;;;;;;7.71;100.00;99339.31;4887618;29;20047;-78
2023/12/11 05:15:53;;;;;;;65.53;10.45;;;;;;;7.71;100.00;99336.69;4904074;29;20082;-78
2023/12/11 05:18:21;;;;;;;50.45;7.90;;;;;;;7.70;100.00;99330.56;4926976;29;20544;-77
2023/12/11 05:20:48;;;;;;;53.75;7.95;;;;;;;7.71;100.00;99331.44;4901694;29;20417;-77
2023/12/11 05:23:15;;;;;;;48.50;7.70;;;;;;;7.71;100.00;99328.81;4888806;29;20052;-78
2023/12/11 05:25:42;;;;;;;42.72;6.25;;;;;;;7.72;100.00;99328.81;4940453;29;20046;-78
2023/12/11 05:28:10;;;;;;;42.50;6.93;;;;;;;7.72;100.00;99328.81;4891725;29;20080;-78
2023/12/11 05:30:38;;;;;;;46.85;7.82;;;;;;;7.74;100.00;99323.56;4921965;29;20063;-77
2023/12/11 05:33:05;;;;;;;52.17;8.07;;;;;;;7.74;100.00;99323.56;4946638;29;20501;-78
2023/12/11 05:35:33;;;;;;;48.42;8.18;;;;;;;7.73;100.00;99309.59;4928752;29;20066;-77
2023/12/11 05:38:00;;;;;;;48.58;7.00;;;;;;;7.73;100.00;99321.78;4904704;29;20048;-78
2023/12/11 05:40:28;;;;;;;57.88;7.50;;;;;;;7.73;100.00;99320.06;4876648;29;20398;-77
2023/12/11 05:42:55;;;;;;;51.70;7.85;;;;;;;7.73;100.00;99325.31;4901657;29;20171;-77
2023/12/11 05:45:22;;;;;;;45.60;7.07;;;;;;;7.72;100.00;99323.56;4885377;29;20055;-77
2023/12/11 05:47:50;;;;;;;47.95;7.65;;;;;;;7.72;100.00;99320.94;4913310;29;20055;-77
2023/12/11 05:50:18;;;;;;;52.30;8.00;;;;;;;7.71;100.00;99319.22;4915903;29;20066;-77
2023/12/11 05:52:47;;;;;;;45.95;7.45;;;;;;;7.72;100.00;99313.06;4919111;29;20063;-77
2023/12/11 05:55:14;;;;;;;54.63;7.45;;;;;;;7.70;100.00;99316.59;4897153;29;20059;-77
2023/12/11 05:57:42;;;;;;;58.03;9.85;;;;;;;7.71;100.00;99315.69;4902201;29;20047;-76
2023/12/11 06:00:12;;;;;;;54.35;7.30;;;;;;;7.69;100.00;99307.84;4881681;29;20109;-78
2023/12/11 06:02:40;;;;;;;51.15;7.95;;;;;;;7.70;100.00;99316.59;4891162;29;20066;-77
2023/12/11 06:05:08;;;;;;;43.22;7.28;;;;;;;7.70;100.00;99312.22;4884993;29;20058;-77
2023/12/11 06:07:36;;;;;;;59.30;7.72;;;;;;;7.70;100.00;99314.84;4927272;29;20200;-77
2023/12/11 06:10:03;;;;;;;46.20;7.22;;;;;;;7.71;100.00;99307.84;4871095;29;20051;-77
2023/12/11 06:12:32;;;;;;;48.92;7.93;;;;;;;7.71;100.00;99306.09;4874209;29;20496;-78
2023/12/11 06:14:59;;;;;;;52.95;7.03;;;;;;;7.72;100.00;99313.06;4919191;28;20059;-76
2023/12/11 06:17:27;;;;;;;51.53;7.88;;;;;;;7.72;100.00;99302.59;4918408;29;20493;-77
2023/12/11 06:19:55;;;;;;;51.88;7.03;;;;;;;7.72;100.00;99305.22;4945526;29;20046;-77
2023/12/11 06:22:22;;;;;;;48.47;6.88;;;;;;;7.73;100.00;99306.97;4925728;29;20064;-77
2023/12/11 06:24:49;;;;;;;48.25;6.90;;;;;;;7.73;100.00;99306.06;4920931;29;20401;-77
2023/12/11 06:27:17;;;;;;;37.05;6.25;;;;;;;7.74;100.00;99307.81;4905212;28;20935;-76
2023/12/11 06:29:44;;;;;;;56.42;7.85;;;;;;;7.72;100.00;99310.44;4899153;29;20070;-77
2023/12/11 06:32:12;;;;;;;45.83;7.63;;;;;;;7.73;100.00;99306.97;4909984;29;20054;-74
2023/12/11 06:34:39;;;;;;;61.58;8.70;;;;;;;7.72;100.00;99306.97;4941710;29;20062;-77
2023/12/11 06:37:07;;;;;;;36.20;4.57;;;;;;;7.73;100.00;99306.97;4910996;29;20043;-77
2023/12/11 06:39:34;;;;;;;26.90;4.38;;;;;;;7.72;100.00;99305.22;4911492;29;20058;-77
2023/12/11 06:42:02;;;;;;;31.95;4.43;;;;;;;7.70;100.00;99304.34;4889186;29;20509;-77
2023/12/11 06:44:30;;;;;;;28.23;4.05;;;;;;;7.70;100.00;99301.72;4883348;29;20066;-77
2023/12/11 06:46:57;;;;;;;26.02;3.47;;;;;;;7.69;100.00;99307.84;4924905;29;20052;-77
2023/12/11 06:49:25;;;;;;;26.38;3.83;;;;;;;7.68;100.00;99303.50;4906234;29;20047;-77
2023/12/11 06:51:55;;;;;;;28.42;3.38;;;;;;;7.68;100.00;99307.88;4945772;29;20058;-77
2023/12/11 06:54:22;;;;;;;21.33;3.97;;;;;;;7.67;100.00;99307.00;4925928;29;20047;-77
2023/12/11 06:56:50;;;;;;;24.38;4.28;;;;;;;7.67;100.00;99306.13;4922693;29;20047;-77
2023/12/11 06:59:17;;;;;;;39.30;5.88;;;;;;;7.66;100.00;99304.41;4852486;29;20070;-77
2023/12/11 07:01:44;;;;;;;31.00;3.80;;;;;;;7.65;100.00;99306.16;4948860;28;20050;-77
2023/12/11 07:04:12;;;;;;;24.83;4.75;;;;;;;7.65;100.00;99313.16;4934816;29;20054;-77
2023/12/11 07:06:39;;;;;;;26.10;4.38;;;;;;;7.64;100.00;99307.03;4899516;29;20078;-77
2023/12/11 07:09:07;;;;;;;27.50;5.05;;;;;;;7.61;100.00;99307.06;4906573;29;20043;-76
2023/12/11 07:11:35;;;;;;;34.42;6.35;;;;;;;7.61;100.00;99313.16;4938958;28;20047;-77
2023/12/11 07:14:02;;;;;;;33.65;5.80;;;;;;;7.63;100.00;99314.91;4920220;29;20413;-77
2023/12/11 07:16:33;;;;;;;26.15;4.85;;;;;;;7.63;100.00;99301.81;4840788;29;20530;-77
2023/12/11 07:19:03;;;;;;;21.30;4.15;;;;;;;7.65;100.00;99307.91;4946328;29;20537;-77
2023/12/11 07:21:31;;;;;;;26.88;4.35;;;;;;;7.64;100.00;99312.28;4918409;29;20054;-77
2023/12/11 07:23:58;;;;;;;24.05;3.83;;;;;;;7.66;100.00;99310.50;4914523;29;20055;-76
2023/12/11 07:26:25;;;;;;;24.92;3.45;;;;;;;7.65;100.00;99307.91;4924531;29;20051;-76
2023/12/11 07:28:53;;;;;;;24.20;3.45;;;;;;;7.66;100.00;99320.16;4948397;29;20039;-76
2023/12/11 07:31:20;;;;;;;31.05;4.93;;;;;;;7.66;100.00;99313.13;4875492;29;20054;-78
2023/12/11 07:33:48;;;;;;;26.63;3.67;;;;;;;7.66;100.00;99313.13;4931909;29;20054;-77
2023/12/11 07:36:15;;;;;;;23.20;4.05;;;;;;;7.66;100.00;99313.13;4916001;29;20412;-78
2023/12/11 07:38:42;;;;;;;32.60;5.20;;;;;;;7.66;100.00;99305.28;4919452;29;20043;-77
2023/12/11 07:41:11;;;;;;;30.33;3.97;;;;;;;7.67;100.00;99314.00;4934221;29;20047;-77
2023/12/11 07:43:41;;;;;;;28.95;4.45;;;;;;;7.67;100.00;99311.38;4927609;29;20051;-77
2023/12/11 07:46:15;;;;;;;26.38;4.00;;;;;;;7.67;100.00;99307.00;4888578;29;20077;-78
2023/12/11 07:48:43;;;;;;;42.20;5.47;;;;;;;7.67;100.00;99307.00;4911892;29;20055;-77
2023/12/11 07:51:23;;;;;;;30.23;4.80;;;;;;;7.66;100.00;99304.41;4913829;29;20059;-76
2023/12/11 07:53:53;;;;;;;25.98;3.97;;;;;;;7.65;100.00;99308.75;4941738;29;20042;-76
2023/12/11 07:56:21;;;;;;;35.03;4.18;;;;;;;7.65;100.00;99295.66;4914850;29;20051;-78
2023/12/11 07:58:50;;;;;;;25.45;5.07;;;;;;;7.66;100.00;99302.66;4892414;29;20056;-77
2023/12/11 08:01:18;;;;;;;26.52;3.63;;;;;;;7.66;100.00;99299.16;4903762;29;20059;-77
2023/12/11 08:03:45;;;;;;;32.45;4.18;;;;;;;7.65;100.00;99307.91;4919910;29;20039;-77
2023/12/11 08:06:13;;;;;;;22.83;4.38;;;;;;;7.64;100.00;99301.81;4926745;29;20051;-77
2023/12/11 08:08:43;;;;;;;26.50;4.22;;;;;;;7.63;100.00;99305.28;4928652;29;20059;-76
2023/12/11 08:11:18;;;;;;;32.00;4.00;;;;;;;7.64;100.00;99307.03;4919984;29;20066;-76
2023/12/11 08:13:45;;;;;;;25.70;3.45;;;;;;;7.64;100.00;99296.56;4930337;29;20043;-77
2023/12/11 08:16:14;;;;;;;23.90;4.22;;;;;;;7.65;100.00;99303.53;4916431;29;20055;-77
2023/12/11 08:18:43;;;;;;;25.30;3.28;;;;;;;7.65;100.00;99305.28;4899084;29;20059;-76
2023/12/11 08:21:11;;;;;;;16.88;3.10;;;;;;;7.65;100.00;99310.53;4923893;29;20094;-77
2023/12/11 08:23:40;;;;;;;18.67;3.13;;;;;;;7.67;100.00;99311.38;4909898;29;20056;-76
2023/12/11 08:26:09;;;;;;;25.55;3.35;;;;;;;7.65;100.00;99306.16;4928393;29;20058;-77
2023/12/11 08:28:36;;;;;;;27.08;4.15;;;;;;;7.67;100.00;99307.00;4886392;29;20047;-77
2023/12/11 08:31:04;;;;;;;25.90;3.42;;;;;;;7.67;100.00;99311.38;4912795;29;20043;-77
2023/12/11 08:33:31;;;;;;;15.90;4.10;;;;;;;7.67;100.00;99306.13;4897566;29;20077;-76
2023/12/11 08:35:59;;;;;;;22.08;3.80;;;;;;;7.66;100.00;99302.66;4889899;29;20058;-76
2023/12/11 08:38:26;;;;;;;20.35;2.67;;;;;;;7.67;100.00;99308.75;4888041;29;20040;-76
2023/12/11 08:40:54;;;;;;;31.40;3.58;;;;;;;7.68;100.00;99313.13;4947633;29;20050;-77
2023/12/11 08:43:21;;;;;;;19.15;2.60;;;;;;;7.67;100.00;99309.63;4930760;28;20052;-77
2023/12/11 08:45:49;;;;;;;25.88;2.65;;;;;;;7.67;100.00;99314.84;4917444;29;20047;-76
2023/12/11 08:48:16;;;;;;;18.60;2.70;;;;;;;7.68;100.00;99310.50;4917155;29;20048;-76
2023/12/11 08:50:43;;;;;;;23.08;2.78;;;;;;;7.67;100.00;99317.47;4901683;29;20047;-76
2023/12/11 08:53:11;;;;;;;25.15;3.13;;;;;;;7.68;100.00;99326.25;4931944;28;20056;-76
2023/12/11 08:55:39;;;;;;;24.67;3.15;;;;;;;7.69;100.00;99328.81;4923723;29;20576;-77
2023/12/11 08:58:06;;;;;;;14.10;3.72;;;;;;;7.71;100.00;99323.56;4920446;29;20043;-77
2023/12/11 09:00:33;;;;;;;23.73;2.55;;;;;;;7.72;100.00;99333.19;4913683;29;20052;-77
2023/12/11 09:03:01;;;;;;;20.63;4.03;;;;;;;7.73;100.00;99341.03;4930821;28;20047;-77
2023/12/11 09:05:28;;;;;;;14.05;2.60;;;;;;;7.75;100.00;99347.16;4880214;29;20039;-76
2023/12/11 09:07:56;;;;;;;15.60;2.70;;;;;;;7.76;100.00;99343.63;4917791;29;20051;-76
2023/12/11 09:10:23;;;;;;;18.27;2.90;;;;;;;7.78;100.00;99341.84;4910458;29;20634;-76
2023/12/11 09:12:53;;;;;;;15.25;2.85;;;;;;;7.80;100.00;99355.81;4913149;29;20051;-76
2023/12/11 09:15:20;;;;;;;16.77;2.70;;;;;;;7.83;100.00;99357.56;4908606;29;20512;-76
2023/12/11 09:17:48;;;;;;;23.02;3.30;;;;;;;7.88;100.00;99365.38;4929516;29;20062;-76
2023/12/11 09:20:15;;;;;;;17.55;2.60;;;;;;;7.90;100.00;99358.34;4908382;29;20048;-76
2023/12/11 09:22:43;;;;;;;16.52;2.97;;;;;;;7.92;100.00;99364.44;4893793;29;20059;-76
2023/12/11 09:25:10;;;;;;;16.75;2.45;;;;;;;7.94;100.00;99375.78;4923652;29;20066;-77
2023/12/11 09:27:38;;;;;;;16.48;3.25;;;;;;;7.93;100.00;99367.06;4892518;29;20073;-77
2023/12/11 09:30:10;;;;;;;16.33;3.25;;;;;;;7.94;100.00;99379.31;4906660;29;20043;-77
2023/12/11 09:32:40;;;;;;;14.30;2.72;;;;;;;7.96;100.00;99387.16;4927471;29;20039;-76
2023/12/11 09:35:08;;;;;;;20.95;3.05;;;;;;;7.97;100.00;99394.13;4877349;29;20062;-76
2023/12/11 09:37:36;;;;;;;15.73;2.85;;;;;;;7.95;100.00;99380.16;4922861;29;20417;-77
2023/12/11 09:40:05;;;;;;;16.58;3.38;;;;;;;7.96;100.00;99393.28;4908733;29;20040;-76
2023/12/11 09:42:34;;;;;;;17.20;4.57;;;;;;;7.97;100.00;99402.00;4939621;29;20070;-76
2023/12/11 09:45:03;;;;;;;18.45;2.90;;;;;;;7.98;100.00;99407.25;4941920;29;20051;-75
2023/12/11 09:47:43;;;;;;;14.77;3.40;;;;;;;7.98;100.00;99412.50;4917916;29;20054;-76
2023/12/11 09:50:13;;;;;;;20.30;3.78;;;;;;;8.02;100.00;99415.09;4894835;29;20035;-76
2023/12/11 09:52:41;;;;;;;15.85;3.53;;;;;;;8.02;100.00;99418.59;4907928;29;20437;-76
2023/12/11 09:55:09;;;;;;;12.85;3.17;;;;;;;8.06;100.00;99419.44;4898816;29;20051;-75
2023/12/11 09:57:39;;;;;;;17.10;4.55;;;;;;;8.08;100.00;99429.00;4925279;29;20070;-78
2023/12/11 10:00:09;;;;;;;17.85;4.05;;;;;;;8.09;100.00;99440.38;4915542;29;20040;-77
2023/12/11 10:02:39;;;;;;;12.38;3.70;;;;;;;8.08;100.00;99429.00;4897997;29;20047;-77
2023/12/11 10:05:08;;;;;;;23.00;3.63;;;;;;;8.09;100.00;99450.84;4927924;29;20051;-76
2023/12/11 10:07:40;;;;;;;17.33;4.10;;;;;;;8.08;100.00;99450.00;4914591;28;20055;-77
2023/12/11 10:10:31;;;;;;;17.38;3.65;;;;;;;8.09;100.00;99462.25;4913841;29;20413;-77
2023/12/11 10:13:00;;;;;;;20.02;4.55;;;;;;;8.10;100.00;99460.50;4927957;29;20520;-77
2023/12/11 10:15:33;;;;;;;16.07;3.43;;;;;;;8.09;100.00;99467.50;4925681;29;20050;-78
2023/12/11 10:18:11;;;;;;;24.45;4.68;;;;;;;8.11;100.00;99472.69;4930378;29;20047;-77
2023/12/11 10:20:42;;;;;;;16.73;4.18;;;;;;;8.10;100.00;99469.22;4943754;29;20050;-77
2023/12/11 10:23:12;;;;;;;25.70;3.97;;;;;;;8.11;100.00;99489.34;4902718;29;20059;-76
2023/12/11 10:25:44;;;;;;;20.27;3.35;;;;;;;8.12;100.00;99490.19;4906086;29;20055;-78
2023/12/11 10:28:14;;;;;;;20.40;3.55;;;;;;;8.14;100.00;99491.06;4926645;29;20059;-76
2023/12/11 10:30:52;;;;;;;19.35;4.45;;;;;;;8.15;100.00;99493.69;4928138;29;20043;-77
2023/12/11 10:33:21;;;;;;;19.35;3.45;;;;;;;8.16;100.00;99503.28;4900343;29;20061;-76
2023/12/11 10:35:49;;;;;;;21.20;3.58;;;;;;;8.16;100.00;99505.88;4911751;29;20523;-77
2023/12/11 10:38:22;;;;;;;26.70;3.28;;;;;;;8.18;100.00;99509.41;4891341;29;20047;-76
2023/12/11 10:40:50;;;;;;;18.27;2.83;;;;;;;8.20;100.00;99518.13;4928876;29;20121;-77
2023/12/11 10:43:18;;;;;;;22.20;3.70;;;;;;;8.24;100.00;99518.09;4919681;29;20055;-77
2023/12/11 10:45:46;;;;;;;22.25;2.97;;;;;;;8.29;100.00;99526.81;4928850;29;20050;-78
2023/12/11 10:48:19;;;;;;;15.55;2.90;;;;;;;8.33;100.00;99544.25;4921141;29;20058;-76
2023/12/11 10:50:48;;;;;;;24.08;3.22;;;;;;;8.36;100.00;99541.63;4911768;29;20441;-77
2023/12/11 10:53:16;;;;;;;21.27;3.35;;;;;;;8.36;100.00;99546.88;4913903;28;20052;-77
2023/12/11 10:55:46;;;;;;;27.70;2.83;;;;;;;8.36;100.00;99554.75;4920238;29;20055;-78
2023/12/11 10:58:14;;;;;;;21.73;2.90;;;;;;;8.35;100.00;99553.84;4907126;28;20060;-77
2023/12/11 11:00:44;;;;;;;14.65;3.08;;;;;;;8.37;100.00;99556.47;4925374;29;20047;-77
2023/12/11 11:03:13;;;;;;;22.92;3.50;;;;;;;8.40;100.00;99559.06;4902999;29;20039;-76
2023/12/11 11:05:41;;;;;;;19.80;2.60;;;;;;;8.45;100.00;99562.56;4932425;28;20062;-78
2023/12/11 11:08:31;;;;;;;22.83;2.78;;;;;;;8.48;100.00;99575.66;4900001;28;20058;-77
2023/12/11 11:11:09;;;;;;;19.80;2.70;;;;;;;8.51;100.00;99575.63;4941929;29;20051;-78
2023/12/11 11:14:15;;;;;;;26.80;3.28;;;;;;;8.54;100.00;99585.22;4899723;28;20051;-77
2023/12/11 11:16:55;;;;;;;17.08;2.47;;;;;;;8.54;100.00;99590.47;4922410;29;20055;-76
2023/12/11 11:19:24;;;;;;;18.95;3.03;;;;;;;8.55;100.00;99603.59;4937260;28;20512;-77
2023/12/11 11:22:03;;;;;;;24.00;2.65;;;;;;;8.55;100.00;99600.97;4910997;29;20054;-77
2023/12/11 11:24:34;;;;;;;19.25;3.00;;;;;;;8.55;100.00;99597.50;4891404;29;20050;-76
2023/12/11 11:27:02;;;;;;;;;;;;;;;8.54;100.00;99604.50;4940329;28;20066;-76
2023/12/11 11:29:41;;;;;;;22.85;3.38;;;;;;;8.55;100.00;99611.47;4911485;28;20445;-77